sensor_id;sensor_type;location;lat;lon;timestamp;pressure;altitude;pressure_sealevel;temperature;humidity
57799;BME280;43626;53.866;30.298;2023-09-18T00:01:14;1029.3;;;14.2;66.9
57799;BME280;43626;53.866;30.298;2023-09-18T00:05:58;1029.3;;;14.1;67.1
57799;BME280;43626;53.866;30.298;2023-09-18T00:11:32;1029.2;;;14.1;67
57799;BME280;43626;53.866;30.298;2023-09-18T00:16:32;1029.3;;;14;66.8
57799;BME280;43626;53.866;30.298;2023-09-18T00:21:10;1029.3;;;14;66.6
57799;BME280;43626;53.866;30.298;2023-09-18T00:26:32;1029.3;;;13.9;66.6
57799;BME280;43626;53.866;30.298;2023-09-18T00:31:12;1029.3;;;13.8;66.3
57799;BME280;43626;53.866;30.298;2023-09-18T00:35:54;1029.3;;;13.7;66.1
57799;BME280;43626;53.866;30.298;2023-09-18T00:41:12;1029.3;;;13.6;66.3
57799;BME280;43626;53.866;30.298;2023-09-18T00:46:04;1029.2;;;13.5;66.1
57799;BME280;43626;53.866;30.298;2023-09-18T00:51:12;1029.2;;;13.5;66
57799;BME280;43626;53.866;30.298;2023-09-18T00:56:14;1029.2;;;13.4;65.5
57799;BME280;43626;53.866;30.298;2023-09-18T01:01:32;1029.2;;;13.3;65.7
57799;BME280;43626;53.866;30.298;2023-09-18T01:06:32;1029.2;;;13.2;65.7
57799;BME280;43626;53.866;30.298;2023-09-18T01:11:10;1029.1;;;13.2;65.6
57799;BME280;43626;53.866;30.298;2023-09-18T01:16:34;1029.1;;;13.1;65.4
57799;BME280;43626;53.866;30.298;2023-09-18T01:20:54;1029;;;13.1;65.3
57799;BME280;43626;53.866;30.298;2023-09-18T01:26:10;1029;;;13;65.3
57799;BME280;43626;53.866;30.298;2023-09-18T01:31:14;1029;;;13;65.1
57799;BME280;43626;53.866;30.298;2023-09-18T01:36:04;1029;;;12.9;64.9
57799;BME280;43626;53.866;30.298;2023-09-18T01:41:14;1029;;;12.8;64.9
57799;BME280;43626;53.866;30.298;2023-09-18T01:46:14;1029;;;12.7;65
57799;BME280;43626;53.866;30.298;2023-09-18T01:51:32;1029;;;12.7;64.9
57799;BME280;43626;53.866;30.298;2023-09-18T01:56:32;1029;;;12.6;64.8
57799;BME280;43626;53.866;30.298;2023-09-18T02:01:04;1029.1;;;12.6;64.8
57799;BME280;43626;53.866;30.298;2023-09-18T02:06:32;1029.1;;;12.5;64.8
57799;BME280;43626;53.866;30.298;2023-09-18T02:11:30;1029.1;;;12.5;64.6
57799;BME280;43626;53.866;30.298;2023-09-18T02:15:54;1029.1;;;12.4;64.5
57799;BME280;43626;53.866;30.298;2023-09-18T02:21:18;1029.1;;;12.4;64.6
57799;BME280;43626;53.866;30.298;2023-09-18T02:25:54;1029.1;;;12.3;64.5
57799;BME280;43626;53.866;30.298;2023-09-18T02:31:14;1029.1;;;12.3;64.4
57799;BME280;43626;53.866;30.298;2023-09-18T02:36:32;1029.1;;;12.2;64.4
57799;BME280;43626;53.866;30.298;2023-09-18T02:41:00;1029.1;;;12.1;64.2
57799;BME280;43626;53.866;30.298;2023-09-18T02:46:32;1029.1;;;12.1;64.4
57799;BME280;43626;53.866;30.298;2023-09-18T02:50:50;1029;;;12;64.5
57799;BME280;43626;53.866;30.298;2023-09-18T02:55:49;1029;;;12;64.5
57799;BME280;43626;53.866;30.298;2023-09-18T03:00:49;1029;;;12;64.4
57799;BME280;43626;53.866;30.298;2023-09-18T03:05:48;1029;;;12;64.4
57799;BME280;43626;53.866;30.298;2023-09-18T03:11:30;1029.1;;;11.9;64.2
57799;BME280;43626;53.866;30.298;2023-09-18T03:15:48;1029;;;11.9;64.3
57799;BME280;43626;53.866;30.298;2023-09-18T03:20:48;1029;;;11.9;64.3
57799;BME280;43626;53.866;30.298;2023-09-18T03:26:14;1029;;;11.8;64.1
57799;BME280;43626;53.866;30.298;2023-09-18T03:30:54;1029;;;11.8;64.2
57799;BME280;43626;53.866;30.298;2023-09-18T03:36:32;1028.9;;;11.7;64.2
57799;BME280;43626;53.866;30.298;2023-09-18T03:41:24;1028.9;;;11.6;64.3
57799;BME280;43626;53.866;30.298;2023-09-18T03:45:54;1029;;;11.6;64.3
57799;BME280;43626;53.866;30.298;2023-09-18T03:51:14;1029;;;11.6;64.2
57799;BME280;43626;53.866;30.298;2023-09-18T03:55:48;1029;;;11.5;64.4
57799;BME280;43626;53.866;30.298;2023-09-18T04:01:16;1029;;;11.5;64.6
57799;BME280;43626;53.866;30.298;2023-09-18T04:06:12;1029;;;11.5;64.7
57799;BME280;43626;53.866;30.298;2023-09-18T04:11:00;1029;;;11.5;65.1
57799;BME280;43626;53.866;30.298;2023-09-18T04:16:02;1029;;;11.6;65.4
57799;BME280;43626;53.866;30.298;2023-09-18T04:21:00;1028.9;;;11.6;65.7
57799;BME280;43626;53.866;30.298;2023-09-18T04:26:34;1028.9;;;11.7;65.8
57799;BME280;43626;53.866;30.298;2023-09-18T04:31:26;1028.9;;;11.8;66
57799;BME280;43626;53.866;30.298;2023-09-18T04:35:54;1028.9;;;11.8;66.1
57799;BME280;43626;53.866;30.298;2023-09-18T04:41:14;1029;;;11.9;66.5
57799;BME280;43626;53.866;30.298;2023-09-18T04:45:48;1029;;;11.9;66.7
57799;BME280;43626;53.866;30.298;2023-09-18T04:51:34;1029;;;12;67.1
57799;BME280;43626;53.866;30.298;2023-09-18T04:55:48;1029;;;12.1;67.5
57799;BME280;43626;53.866;30.298;2023-09-18T05:00:53;1028.9;;;12.3;67.7
57799;BME280;43626;53.866;30.298;2023-09-18T05:06:15;1028.9;;;12.4;67.9
57799;BME280;43626;53.866;30.298;2023-09-18T05:11:00;1028.8;;;12.6;67.8
57799;BME280;43626;53.866;30.298;2023-09-18T05:16:34;1028.8;;;12.7;67.8
57799;BME280;43626;53.866;30.298;2023-09-18T05:21:22;1028.8;;;12.9;68.5
57799;BME280;43626;53.866;30.298;2023-09-18T05:25:54;1028.7;;;13.1;68.7
57799;BME280;43626;53.866;30.298;2023-09-18T05:31:32;1028.7;;;13.3;68.8
57799;BME280;43626;53.866;30.298;2023-09-18T05:35:48;1028.7;;;13.4;69.2
57799;BME280;43626;53.866;30.298;2023-09-18T05:41:32;1028.7;;;13.6;69.6
57799;BME280;43626;53.866;30.298;2023-09-18T05:45:58;1028.7;;;13.7;69.6
57799;BME280;43626;53.866;30.298;2023-09-18T05:51:00;1028.7;;;13.8;69.9
57799;BME280;43626;53.866;30.298;2023-09-18T05:56:02;1028.7;;;13.9;69.8
57799;BME280;43626;53.866;30.298;2023-09-18T06:00:48;1028.7;;;14;69.8
57799;BME280;43626;53.866;30.298;2023-09-18T06:06:32;1028.6;;;14.2;69.7
57799;BME280;43626;53.866;30.298;2023-09-18T06:11:22;1028.6;;;14.4;69.4
57799;BME280;43626;53.866;30.298;2023-09-18T06:15:56;1028.6;;;14.5;69.2
57799;BME280;43626;53.866;30.298;2023-09-18T06:20:54;1028.6;;;14.7;68.9
57799;BME280;43626;53.866;30.298;2023-09-18T06:25:54;1028.5;;;14.9;68.7
57799;BME280;43626;53.866;30.298;2023-09-18T06:31:34;1028.5;;;14.9;68.5
57799;BME280;43626;53.866;30.298;2023-09-18T06:36:06;1028.5;;;15;68.6
57799;BME280;43626;53.866;30.298;2023-09-18T06:41:00;1028.4;;;15.2;68.8
57799;BME280;43626;53.866;30.298;2023-09-18T06:46:02;1028.4;;;15.3;68.8
57799;BME280;43626;53.866;30.298;2023-09-18T06:50:48;1028.5;;;15.5;68.4
57799;BME280;43626;53.866;30.298;2023-09-18T06:56:34;1028.4;;;15.6;68
57799;BME280;43626;53.866;30.298;2023-09-18T07:00:50;1028.5;;;15.7;67.7
57799;BME280;43626;53.866;30.298;2023-09-18T07:05:48;1028.4;;;15.9;67.5
57799;BME280;43626;53.866;30.298;2023-09-18T07:11:14;1028.4;;;16.1;67
57799;BME280;43626;53.866;30.298;2023-09-18T07:16:12;1028.5;;;16.4;66.3
57799;BME280;43626;53.866;30.298;2023-09-18T07:21:34;1028.5;;;16.6;66.2
57799;BME280;43626;53.866;30.298;2023-09-18T07:26:04;1028.5;;;16.8;65.9
57799;BME280;43626;53.866;30.298;2023-09-18T07:31:04;1028.6;;;17;65.5
57799;BME280;43626;53.866;30.298;2023-09-18T07:36:14;1028.5;;;17.2;64.2
57799;BME280;43626;53.866;30.298;2023-09-18T07:41:00;1028.5;;;17.4;63.5
57799;BME280;43626;53.866;30.298;2023-09-18T07:46:34;1028.6;;;17.6;63.2
57799;BME280;43626;53.866;30.298;2023-09-18T07:51:26;1028.7;;;17.7;62.6
57799;BME280;43626;53.866;30.298;2023-09-18T07:55:54;1028.6;;;18;62.5
57799;BME280;43626;53.866;30.298;2023-09-18T08:00:55;1028.6;;;18.2;62.2
57799;BME280;43626;53.866;30.298;2023-09-18T08:05:49;1028.6;;;18.4;61.3
57799;BME280;43626;53.866;30.298;2023-09-18T08:11:34;1028.6;;;18.5;61
57799;BME280;43626;53.866;30.298;2023-09-18T08:16:05;1028.6;;;18.7;60.5
57799;BME280;43626;53.866;30.298;2023-09-18T08:21:20;1028.6;;;18.8;60.4
57799;BME280;43626;53.866;30.298;2023-09-18T08:26:14;1028.6;;;19;60.2
57799;BME280;43626;53.866;30.298;2023-09-18T08:31:00;1028.6;;;19.1;59.3
57799;BME280;43626;53.866;30.298;2023-09-18T08:36:32;1028.5;;;19.2;58.2
57799;BME280;43626;53.866;30.298;2023-09-18T08:41:27;1028.5;;;19.4;58.1
57799;BME280;43626;53.866;30.298;2023-09-18T08:45:50;1028.4;;;19.6;57.9
57799;BME280;43626;53.866;30.298;2023-09-18T08:50:54;1028.4;;;19.7;56.5
57799;BME280;43626;53.866;30.298;2023-09-18T08:55:48;1028.4;;;19.9;57
57799;BME280;43626;53.866;30.298;2023-09-18T09:01:34;1028.5;;;20.1;56.7
57799;BME280;43626;53.866;30.298;2023-09-18T09:06:14;1028.5;;;20.2;56.3
57799;BME280;43626;53.866;30.298;2023-09-18T09:10:54;1028.4;;;20.3;55.7
57799;BME280;43626;53.866;30.298;2023-09-18T09:16:12;1028.4;;;20.5;55.4
57799;BME280;43626;53.866;30.298;2023-09-18T09:20:55;1028.3;;;20.6;55.3
57799;BME280;43626;53.866;30.298;2023-09-18T09:26:34;1028.3;;;20.8;55.4
57799;BME280;43626;53.866;30.298;2023-09-18T09:31:27;1028.3;;;20.9;55.5
57799;BME280;43626;53.866;30.298;2023-09-18T09:35:48;1028.3;;;21;54.9
57799;BME280;43626;53.866;30.298;2023-09-18T09:40:54;1028.3;;;21.1;54.2
57799;BME280;43626;53.866;30.298;2023-09-18T09:45:48;1028.3;;;21.2;53.5
57799;BME280;43626;53.866;30.298;2023-09-18T09:51:34;1028.3;;;21.3;53
57799;BME280;43626;53.866;30.298;2023-09-18T09:56:06;1028.2;;;21.4;52.2
57799;BME280;43626;53.866;30.298;2023-09-18T10:01:03;1028.2;;;21.5;52.9
57799;BME280;43626;53.866;30.298;2023-09-18T10:06:02;1028.2;;;21.6;52.4
57799;BME280;43626;53.866;30.298;2023-09-18T10:11:01;1028.2;;;21.8;52.2
57799;BME280;43626;53.866;30.298;2023-09-18T10:16:17;1028.2;;;22.1;52.1
57799;BME280;43626;53.866;30.298;2023-09-18T10:21:09;1028.2;;;22.3;51.9
57799;BME280;43626;53.866;30.298;2023-09-18T10:25:48;1028.2;;;22.4;51.7
57799;BME280;43626;53.866;30.298;2023-09-18T10:30:55;1028.1;;;22.4;51.8
57799;BME280;43626;53.866;30.298;2023-09-18T10:35:54;1028.1;;;22.5;52.3
57799;BME280;43626;53.866;30.298;2023-09-18T10:41:34;1028;;;22.6;51.5
57799;BME280;43626;53.866;30.298;2023-09-18T10:46:06;1028;;;22.6;51.9
57799;BME280;43626;53.866;30.298;2023-09-18T10:51:00;1027.9;;;22.7;50.6
57799;BME280;43626;53.866;30.298;2023-09-18T10:56:08;1027.9;;;22.8;50.6
57799;BME280;43626;53.866;30.298;2023-09-18T11:00:54;1027.9;;;22.8;51.1
57799;BME280;43626;53.866;30.298;2023-09-18T11:07:06;1027.8;;;22.9;50.7
57799;BME280;43626;53.866;30.298;2023-09-18T11:11:24;1027.7;;;22.9;51.2
57799;BME280;43626;53.866;30.298;2023-09-18T11:16:15;1027.7;;;23;50.9
57799;BME280;43626;53.866;30.298;2023-09-18T11:21:06;1027.7;;;23.1;51.2
57799;BME280;43626;53.866;30.298;2023-09-18T11:25:54;1027.7;;;23.2;50.6
57799;BME280;43626;53.866;30.298;2023-09-18T11:31:42;1027.7;;;23.3;50.5
57799;BME280;43626;53.866;30.298;2023-09-18T11:36:07;1027.7;;;23.3;48.9
57799;BME280;43626;53.866;30.298;2023-09-18T11:41:00;1027.7;;;23.3;49
57799;BME280;43626;53.866;30.298;2023-09-18T11:46:12;1027.6;;;23.4;49.2
57799;BME280;43626;53.866;30.298;2023-09-18T11:51:21;1027.6;;;23.6;49.2
57799;BME280;43626;53.866;30.298;2023-09-18T11:56:34;1027.6;;;23.7;49.8
57799;BME280;43626;53.866;30.298;2023-09-18T12:01:26;1027.7;;;23.8;49.1
57799;BME280;43626;53.866;30.298;2023-09-18T12:05:49;1027.7;;;23.9;48.4
57799;BME280;43626;53.866;30.298;2023-09-18T12:11:00;1027.6;;;23.8;48
57799;BME280;43626;53.866;30.298;2023-09-18T12:15:48;1027.5;;;23.8;48.4
57799;BME280;43626;53.866;30.298;2023-09-18T12:21:39;1027.5;;;23.7;48.5
57799;BME280;43626;53.866;30.298;2023-09-18T12:26:04;1027.4;;;23.7;48.2
57799;BME280;43626;53.866;30.298;2023-09-18T12:31:00;1027.4;;;23.7;48.1
57799;BME280;43626;53.866;30.298;2023-09-18T12:36:02;1027.4;;;23.6;48.6
57799;BME280;43626;53.866;30.298;2023-09-18T12:41:08;1027.3;;;23.6;48.2
57799;BME280;43626;53.866;30.298;2023-09-18T12:46:34;1027.3;;;23.6;47.7
57799;BME280;43626;53.866;30.298;2023-09-18T12:51:34;1027.3;;;23.3;48.3
57799;BME280;43626;53.866;30.298;2023-09-18T12:56:39;1027.3;;;23.1;48.9
57799;BME280;43626;53.866;30.298;2023-09-18T13:01:15;1027.3;;;23;49.5
57799;BME280;43626;53.866;30.298;2023-09-18T13:05:48;1027.3;;;22.8;50
57799;BME280;43626;53.866;30.298;2023-09-18T13:11:50;1027.3;;;22.7;50.7
57799;BME280;43626;53.866;30.298;2023-09-18T13:16:05;1027.3;;;22.5;51.4
57799;BME280;43626;53.866;30.298;2023-09-18T13:20:54;1027.3;;;22.3;52.6
57799;BME280;43626;53.866;30.298;2023-09-18T13:26:34;1027.2;;;22.1;53.5
57799;BME280;43626;53.866;30.298;2023-09-18T13:30:54;1027.2;;;22;54.3
57799;BME280;43626;53.866;30.298;2023-09-18T13:36:34;1027.1;;;22;54.6
57799;BME280;43626;53.866;30.298;2023-09-18T13:41:18;1027.1;;;22;55.1
57799;BME280;43626;53.866;30.298;2023-09-18T13:45:55;1027.1;;;22.1;55.7
57799;BME280;43626;53.866;30.298;2023-09-18T13:51:00;1027;;;22.4;55.4
57799;BME280;43626;53.866;30.298;2023-09-18T13:55:48;1027;;;22.6;54.9
57799;BME280;43626;53.866;30.298;2023-09-18T14:01:24;1027;;;22.7;54.6
57799;BME280;43626;53.866;30.298;2023-09-18T14:05:48;1026.9;;;22.8;54.2
57799;BME280;43626;53.866;30.298;2023-09-18T14:11:20;1026.9;;;22.8;54.2
57799;BME280;43626;53.866;30.298;2023-09-18T14:16:14;1026.9;;;22.8;54.3
57799;BME280;43626;53.866;30.298;2023-09-18T14:21:00;1026.8;;;22.8;54.7
57799;BME280;43626;53.866;30.298;2023-09-18T14:26:20;1026.8;;;22.8;54
57799;BME280;43626;53.866;30.298;2023-09-18T14:31:26;1026.8;;;22.8;54.4
57799;BME280;43626;53.866;30.298;2023-09-18T14:35:54;1026.8;;;22.6;55.2
57799;BME280;43626;53.866;30.298;2023-09-18T14:40:48;1026.8;;;22.4;56.2
57799;BME280;43626;53.866;30.298;2023-09-18T14:46:26;1026.8;;;22.3;56.7
57799;BME280;43626;53.866;30.298;2023-09-18T14:51:34;1026.7;;;22.1;57.1
57799;BME280;43626;53.866;30.298;2023-09-18T14:56:06;1026.7;;;21.9;57.3
57799;BME280;43626;53.866;30.298;2023-09-18T15:00:54;1026.6;;;21.7;57.8
57799;BME280;43626;53.866;30.298;2023-09-18T15:06:12;1026.6;;;21.6;58.3
57799;BME280;43626;53.866;30.298;2023-09-18T15:11:26;1026.5;;;21.5;59
57799;BME280;43626;53.866;30.298;2023-09-18T15:16:34;1026.6;;;21.4;59.6
57799;BME280;43626;53.866;30.298;2023-09-18T15:21:26;1026.6;;;21.3;60.3
57799;BME280;43626;53.866;30.298;2023-09-18T15:25:54;1026.6;;;21.2;60.5
57799;BME280;43626;53.866;30.298;2023-09-18T15:30:55;1026.5;;;21.1;60.9
57799;BME280;43626;53.866;30.298;2023-09-18T15:36:04;1026.5;;;21.1;61.1
57799;BME280;43626;53.866;30.298;2023-09-18T15:41:32;1026.4;;;21.1;60.9
57799;BME280;43626;53.866;30.298;2023-09-18T15:46:26;1026.4;;;21;61.1
57799;BME280;43626;53.866;30.298;2023-09-18T15:51:00;1026.4;;;21;61.3
57799;BME280;43626;53.866;30.298;2023-09-18T15:56:14;1026.4;;;20.9;61.5
57799;BME280;43626;53.866;30.298;2023-09-18T16:01:32;1026.4;;;20.8;62
57799;BME280;43626;53.866;30.298;2023-09-18T16:06:34;1026.4;;;20.8;62.3
57799;BME280;43626;53.866;30.298;2023-09-18T16:11:26;1026.4;;;20.6;63
57799;BME280;43626;53.866;30.298;2023-09-18T16:15:48;1026.4;;;20.6;64
57799;BME280;43626;53.866;30.298;2023-09-18T16:20:54;1026.4;;;20.5;64.3
57799;BME280;43626;53.866;30.298;2023-09-18T16:25:48;1026.4;;;20.4;65.2
57799;BME280;43626;53.866;30.298;2023-09-18T16:31:32;1026.4;;;20.3;65.6
57799;BME280;43626;53.866;30.298;2023-09-18T16:36:06;1026.4;;;20.2;65.4
57799;BME280;43626;53.866;30.298;2023-09-18T16:41:00;1026.4;;;20.2;65.4
57799;BME280;43626;53.866;30.298;2023-09-18T16:46:14;1026.4;;;20.1;65.8
57799;BME280;43626;53.866;30.298;2023-09-18T16:51:26;1026.3;;;20.1;66.1
57799;BME280;43626;53.866;30.298;2023-09-18T16:56:34;1026.3;;;20;66.6
57799;BME280;43626;53.866;30.298;2023-09-18T17:01:24;1026.3;;;20;67
57799;BME280;43626;53.866;30.298;2023-09-18T17:06:20;1026.2;;;19.9;68
57799;BME280;43626;53.866;30.298;2023-09-18T17:10:48;1026.2;;;19.8;68.3
57799;BME280;43626;53.866;30.298;2023-09-18T17:16:24;1026.2;;;19.8;68.5
57799;BME280;43626;53.866;30.298;2023-09-18T17:21:34;1026.3;;;19.7;68.5
57799;BME280;43626;53.866;30.298;2023-09-18T17:25:49;1026.3;;;19.7;68.8
57799;BME280;43626;53.866;30.298;2023-09-18T17:31:00;1026.3;;;19.6;69.1
57799;BME280;43626;53.866;30.298;2023-09-18T17:36:34;1026.3;;;19.6;69.1
57799;BME280;43626;53.866;30.298;2023-09-18T17:41:24;1026.3;;;19.6;69
57799;BME280;43626;53.866;30.298;2023-09-18T17:46:34;1026.3;;;19.5;69.1
57799;BME280;43626;53.866;30.298;2023-09-18T17:51:32;1026.3;;;19.5;69.2
57799;BME280;43626;53.866;30.298;2023-09-18T17:55:54;1026.3;;;19.5;69.2
57799;BME280;43626;53.866;30.298;2023-09-18T18:00:49;1026.2;;;19.5;69.3
57799;BME280;43626;53.866;30.298;2023-09-18T18:05:49;1026.2;;;19.4;69.8
57799;BME280;43626;53.866;30.298;2023-09-18T18:11:04;1026.2;;;19.4;70.1
57799;BME280;43626;53.866;30.298;2023-09-18T18:16:06;1026.2;;;19.3;70.1
57799;BME280;43626;53.866;30.298;2023-09-18T18:21:20;1026.2;;;19.2;70.2
57799;BME280;43626;53.866;30.298;2023-09-18T18:26:09;1026.2;;;19.2;70.6
57799;BME280;43626;53.866;30.298;2023-09-18T18:31:26;1026.2;;;19.2;70.8
57799;BME280;43626;53.866;30.298;2023-09-18T18:36:34;1026.2;;;19.1;70.5
57799;BME280;43626;53.866;30.298;2023-09-18T18:41:26;1026.2;;;19.1;70.5
57799;BME280;43626;53.866;30.298;2023-09-18T18:46:06;1026.2;;;19.1;70.5
57799;BME280;43626;53.866;30.298;2023-09-18T18:50:59;1026.1;;;19;70.5
57799;BME280;43626;53.866;30.298;2023-09-18T18:56:34;1026.1;;;19;70.5
57799;BME280;43626;53.866;30.298;2023-09-18T19:00:57;1026.1;;;19;70.6
57799;BME280;43626;53.866;30.298;2023-09-18T19:06:21;1026.1;;;18.9;70.8
57799;BME280;43626;53.866;30.298;2023-09-18T19:10:55;1026.1;;;18.9;71
57799;BME280;43626;53.866;30.298;2023-09-18T19:16:20;1026.1;;;18.8;71.1
57799;BME280;43626;53.866;30.298;2023-09-18T19:21:32;1026.1;;;18.8;71
57799;BME280;43626;53.866;30.298;2023-09-18T19:25:55;1026;;;18.8;70.8
57799;BME280;43626;53.866;30.298;2023-09-18T19:30:49;1026;;;18.8;70.7
57799;BME280;43626;53.866;30.298;2023-09-18T19:35:54;1026;;;18.7;70.6
57799;BME280;43626;53.866;30.298;2023-09-18T19:40:55;1026;;;18.7;70.5
57799;BME280;43626;53.866;30.298;2023-09-18T19:46:35;1026;;;18.6;70.5
57799;BME280;43626;53.866;30.298;2023-09-18T19:51:25;1025.9;;;18.6;70.5
57799;BME280;43626;53.866;30.298;2023-09-18T19:56:21;1025.9;;;18.6;70.5
57799;BME280;43626;53.866;30.298;2023-09-18T20:01:01;1025.9;;;18.5;70.5
57799;BME280;43626;53.866;30.298;2023-09-18T20:06:13;1025.9;;;18.5;70.7
57799;BME280;43626;53.866;30.298;2023-09-18T20:11:35;1026;;;18.4;70.8
57799;BME280;43626;53.866;30.298;2023-09-18T20:16:13;1026;;;18.4;70.9
57799;BME280;43626;53.866;30.298;2023-09-18T20:20:49;1026;;;18.4;70.7
57799;BME280;43626;53.866;30.298;2023-09-18T20:25:49;1026;;;18.4;70.6
57799;BME280;43626;53.866;30.298;2023-09-18T20:30:55;1025.9;;;18.3;70.4
57799;BME280;43626;53.866;30.298;2023-09-18T20:36:33;1025.9;;;18.3;70.3
57799;BME280;43626;53.866;30.298;2023-09-18T20:41:15;1025.9;;;18.3;70.3
57799;BME280;43626;53.866;30.298;2023-09-18T20:46:21;1025.9;;;18.2;70.3
57799;BME280;43626;53.866;30.298;2023-09-18T20:51:01;1025.8;;;18.2;70.3
57799;BME280;43626;53.866;30.298;2023-09-18T20:56:21;1025.8;;;18.1;70.2
57799;BME280;43626;53.866;30.298;2023-09-18T21:01:35;1025.8;;;18.1;70.1
57799;BME280;43626;53.866;30.298;2023-09-18T21:06:13;1025.8;;;17.9;70
57799;BME280;43626;53.866;30.298;2023-09-18T21:11:01;1025.8;;;17.8;69.9
57799;BME280;43626;53.866;30.298;2023-09-18T21:15:49;1025.8;;;17.7;69.6
57799;BME280;43626;53.866;30.298;2023-09-18T21:20:55;1025.8;;;17.6;69.4
57799;BME280;43626;53.866;30.298;2023-09-18T21:26:35;1025.9;;;17.6;69.6
57799;BME280;43626;53.866;30.298;2023-09-18T21:31:07;1025.9;;;17.5;69.6
57799;BME280;43626;53.866;30.298;2023-09-18T21:36:21;1025.8;;;17.4;69.3
57799;BME280;43626;53.866;30.298;2023-09-18T21:41:09;1025.8;;;17.3;69.1
57799;BME280;43626;53.866;30.298;2023-09-18T21:46:21;1025.8;;;17.2;68.9
57799;BME280;43626;53.866;30.298;2023-09-18T21:51:35;1025.8;;;17.1;68.9
57799;BME280;43626;53.866;30.298;2023-09-18T21:56:13;1025.8;;;17;68.9
57799;BME280;43626;53.866;30.298;2023-09-18T22:00:56;1025.8;;;16.9;68.6
57799;BME280;43626;53.866;30.298;2023-09-18T22:05:55;1025.8;;;16.8;68.2
57799;BME280;43626;53.866;30.298;2023-09-18T22:10:49;1025.8;;;16.7;68.1
57799;BME280;43626;53.866;30.298;2023-09-18T22:16:35;1025.7;;;16.7;68.3
57799;BME280;43626;53.866;30.298;2023-09-18T22:21:27;1025.7;;;16.6;68.1
57799;BME280;43626;53.866;30.298;2023-09-18T22:26:21;1025.7;;;16.6;69
57799;BME280;43626;53.866;30.298;2023-09-18T22:30:55;1025.7;;;16.6;68.8
57799;BME280;43626;53.866;30.298;2023-09-18T22:36:21;1025.7;;;16.5;68.2
57799;BME280;43626;53.866;30.298;2023-09-18T22:56:31;1025.7;;;16.3;67.6
57799;BME280;43626;53.866;30.298;2023-09-18T23:00:49;1025.7;;;16.2;67.6
57799;BME280;43626;53.866;30.298;2023-09-18T23:06:35;1025.7;;;16.2;67.8
57799;BME280;43626;53.866;30.298;2023-09-18T23:11:35;1025.6;;;16.1;67.7
57799;BME280;43626;53.866;30.298;2023-09-18T23:16:21;1025.6;;;16.1;67.6
57799;BME280;43626;53.866;30.298;2023-09-18T23:21:01;1025.6;;;16;67.2
57799;BME280;43626;53.866;30.298;2023-09-18T23:26:27;1025.6;;;16;67.5
57799;BME280;43626;53.866;30.298;2023-09-18T23:31:35;1025.6;;;15.9;67.6
57799;BME280;43626;53.866;30.298;2023-09-18T23:35:49;1025.5;;;15.9;67.5
57799;BME280;43626;53.866;30.298;2023-09-18T23:41:09;1025.5;;;15.9;67.5
57799;BME280;43626;53.866;30.298;2023-09-18T23:45:55;1025.5;;;15.8;67.4
57799;BME280;43626;53.866;30.298;2023-09-18T23:50:51;1025.5;;;15.8;67.5
57799;BME280;43626;53.866;30.298;2023-09-18T23:56:35;1025.5;;;15.7;67.2
